TimeEST,TemperatureF,Dew PointF,Humidity,Sea Level PressureIn,VisibilityMPH,Wind Direction,Wind SpeedMPH,Gust SpeedMPH,PrecipitationIn,Events,Conditions,WindDirDegrees,DateUTC
12:54 AM,34.0,28.0,79,30.49,10.0,WNW,3.5,-,N/A,,Mostly Cloudy,290,2012-11-14 05:54:00
1:54 AM,34.0,27.0,75,30.50,10.0,Calm,Calm,-,N/A,,Scattered Clouds,0,2012-11-14 06:54:00
2:54 AM,34.0,27.0,75,30.50,10.0,NW,3.5,-,N/A,,Partly Cloudy,320,2012-11-14 07:54:00
3:54 AM,32.0,28.0,85,30.50,10.0,Calm,Calm,-,N/A,,Partly Cloudy,0,2012-11-14 08:54:00
4:54 AM,30.0,28.0,92,30.51,10.0,Calm,Calm,-,N/A,,Partly Cloudy,0,2012-11-14 09:54:00
5:54 AM,33.1,27.0,78,30.52,10.0,Calm,Calm,-,N/A,,Scattered Clouds,0,2012-11-14 10:54:00
6:54 AM,35.1,27.0,72,30.53,10.0,North,4.6,-,N/A,,Scattered Clouds,360,2012-11-14 11:54:00
7:54 AM,37.0,27.0,67,30.55,10.0,North,4.6,-,N/A,,Scattered Clouds,360,2012-11-14 12:54:00
8:54 AM,39.9,26.1,58,30.56,10.0,NNE,9.2,-,N/A,,Scattered Clouds,30,2012-11-14 13:54:00
9:54 AM,42.1,25.0,51,30.56,10.0,NNE,13.8,18.4,N/A,,Scattered Clouds,30,2012-11-14 14:54:00
10:54 AM,43.0,26.1,51,30.53,10.0,NNE,8.1,-,N/A,,Scattered Clouds,20,2012-11-14 15:54:00
11:54 AM,44.1,26.1,49,30.51,10.0,North,10.4,16.1,N/A,,Scattered Clouds,10,2012-11-14 16:54:00
12:54 PM,46.0,26.1,46,30.50,10.0,North,6.9,-,N/A,,Scattered Clouds,10,2012-11-14 17:54:00
1:54 PM,46.0,26.1,46,30.48,10.0,NNE,10.4,-,N/A,,Scattered Clouds,30,2012-11-14 18:54:00
2:54 PM,46.9,27.0,46,30.46,10.0,NNE,8.1,-,N/A,,Scattered Clouds,20,2012-11-14 19:54:00
3:54 PM,46.9,26.1,44,30.45,10.0,NNE,5.8,-,N/A,,Mostly Cloudy,20,2012-11-14 20:54:00
4:54 PM,44.1,27.0,51,30.47,10.0,NNE,4.6,-,N/A,,Mostly Cloudy,20,2012-11-14 21:54:00
5:54 PM,42.1,27.0,55,30.47,10.0,NNE,4.6,-,N/A,,Mostly Cloudy,20,2012-11-14 22:54:00
6:54 PM,41.0,28.0,60,30.45,10.0,Calm,Calm,-,N/A,,Mostly Cloudy,0,2012-11-14 23:54:00
7:54 PM,39.9,28.0,63,30.44,10.0,NNW,3.5,-,N/A,,Scattered Clouds,340,2012-11-15 00:54:00
8:54 PM,35.1,28.9,78,30.46,10.0,Calm,Calm,-,N/A,,Scattered Clouds,0,2012-11-15 01:54:00
9:54 PM,33.1,28.0,82,30.47,10.0,Calm,Calm,-,N/A,,Scattered Clouds,0,2012-11-15 02:54:00
10:54 PM,33.1,28.0,82,30.45,10.0,Calm,Calm,-,N/A,,Scattered Clouds,0,2012-11-15 03:54:00
11:54 PM,32.0,28.0,85,30.44,10.0,WNW,3.5,-,N/A,,Mostly Cloudy,290,2012-11-15 04:54:00